Time;durP1;ratioP1;P1;durP2;ratioP2;P2;SDS_P1;SDS_P2;PMS_P1;PMS_P2;Temp;Humidity;BMP_temperature;BMP_pressure;BME280_temperature;BME280_humidity;BME280_pressure;Samples;Min_cycle;Max_cycle;Signal;HPM_P1;HPM_P2
2022/05/25 00:01:29;;;;;;;14.40;13.40;;;;;;;20.58;90.64;99355.59;5132970;27;20339;-63
2022/05/25 00:03:56;;;;;;;14.93;13.70;;;;;;;20.61;90.59;99354.28;5133175;27;20190;-62
2022/05/25 00:06:24;;;;;;;14.40;13.57;;;;;;;20.66;90.54;99362.41;5133044;27;20274;-62
2022/05/25 00:08:50;;;;;;;15.60;14.37;;;;;;;20.68;90.18;99361.06;5133013;27;20200;-62
2022/05/25 00:11:21;;;;;;;14.97;13.80;;;;;;;20.67;90.12;99364.84;5132684;27;20194;-62
2022/05/25 00:13:47;;;;;;;14.20;13.10;;;;;;;20.64;90.04;99365.34;5132644;27;20178;-62
2022/05/25 00:16:14;;;;;;;14.37;13.30;;;;;;;20.69;90.05;99372.66;5132891;27;20253;-62
2022/05/25 00:19:58;;;;;;;15.23;14.23;;;;;;;20.70;89.86;99377.78;5131817;27;20186;-62
2022/05/25 00:21:27;;;;;;;14.40;13.30;;;;;;;20.71;90.01;99365.09;5132232;28;20224;-63
2022/05/25 00:23:54;;;;;;;14.27;13.47;;;;;;;20.69;90.10;99373.47;5132206;27;20193;-63
2022/05/25 00:26:22;;;;;;;14.53;13.23;;;;;;;20.70;90.19;99366.97;5132575;27;20190;-62
2022/05/25 00:28:49;;;;;;;14.57;13.20;;;;;;;20.70;90.28;99375.09;5132487;27;20190;-63
2022/05/25 00:31:16;;;;;;;13.50;12.53;;;;;;;20.72;90.10;99372.94;5132402;27;20202;-63
2022/05/25 00:33:42;;;;;;;13.20;12.27;;;;;;;20.77;90.11;99381.06;5132850;27;20325;-63
2022/05/25 00:36:10;;;;;;;12.90;12.03;;;;;;;20.74;89.42;99370.78;5132554;27;20235;-63
2022/05/25 00:38:36;;;;;;;12.07;11.27;;;;;;;20.75;89.82;99377.00;5132161;27;20201;-63
2022/05/25 00:41:03;;;;;;;13.43;12.53;;;;;;;20.75;89.69;99371.59;5132219;27;20217;-63
2022/05/25 00:43:31;;;;;;;12.70;11.70;;;;;;;20.77;89.48;99367.56;5132239;27;20196;-63
2022/05/25 00:46:05;;;;;;;13.53;12.30;;;;;;;20.77;89.12;99372.13;5132409;27;20198;-63
2022/05/25 00:48:35;;;;;;;12.97;11.80;;;;;;;20.72;89.28;99372.94;5132660;27;20690;-63
2022/05/25 00:51:16;;;;;;;12.47;11.60;;;;;;;20.67;89.35;99364.84;5132202;27;20247;-63
2022/05/25 00:53:46;;;;;;;13.30;12.40;;;;;;;20.74;89.03;99373.47;5132569;27;20188;-63
2022/05/25 00:56:16;;;;;;;11.00;10.30;;;;;;;20.69;88.89;99372.66;5132629;27;20627;-63
2022/05/25 00:58:49;;;;;;;11.33;10.63;;;;;;;20.51;88.28;99379.34;5131823;27;20191;-63
2022/05/25 01:01:17;;;;;;;12.20;11.33;;;;;;;20.23;90.02;99391.34;5132722;27;20288;-63
2022/05/25 01:03:43;;;;;;;12.50;11.60;;;;;;;20.10;90.19;99380.19;5132613;27;20190;-62
2022/05/25 01:06:21;;;;;;;12.27;11.33;;;;;;;20.16;90.68;99384.53;5135200;27;20201;-62
2022/05/25 01:08:59;;;;;;;11.57;10.77;;;;;;;20.24;90.74;99392.13;5135915;27;20181;-63
2022/05/25 01:11:40;;;;;;;12.10;11.20;;;;;;;20.21;90.18;99385.38;5136466;27;20186;-63
2022/05/25 01:14:26;;;;;;;12.13;11.43;;;;;;;20.22;90.57;99399.69;5136170;27;20182;-63
2022/05/25 01:17:04;;;;;;;22.53;20.63;;;;;;;20.19;90.74;99389.41;5135750;27;20231;-63
2022/05/25 01:19:57;;;;;;;20.47;18.97;;;;;;;20.08;90.83;99398.47;5135482;27;20186;-63
2022/05/25 01:22:45;;;;;;;17.40;16.20;;;;;;;19.77;92.62;99397.41;5135317;27;20695;-62
2022/05/25 01:25:26;;;;;;;15.00;14.00;;;;;;;19.82;92.87;99399.34;5101405;27;20186;-62
2022/05/25 01:27:55;;;;;;;16.23;15.03;;;;;;;19.85;92.85;99409.63;5135587;27;20185;-63
2022/05/25 01:30:26;;;;;;;15.77;14.43;;;;;;;19.89;93.28;99406.16;5134731;27;20186;-63
2022/05/25 01:33:12;;;;;;;17.77;16.07;;;;;;;19.88;93.24;99414.47;5135639;27;20250;-62
2022/05/25 01:35:50;;;;;;;18.53;16.83;;;;;;;19.94;93.48;99413.47;5135403;27;20212;-62
2022/05/25 01:38:23;;;;;;;20.00;18.00;;;;;;;19.99;93.24;99416.19;5135293;27;20181;-63
2022/05/25 01:40:55;;;;;;;20.70;18.90;;;;;;;20.00;92.86;99423.22;5135055;27;20182;-64
2022/05/25 01:43:29;;;;;;;19.97;18.07;;;;;;;19.94;93.36;99413.47;5135597;27;20247;-64
2022/05/25 01:46:03;;;;;;;19.37;17.70;;;;;;;19.83;92.81;99419.84;5135293;27;20655;-63
2022/05/25 01:48:34;;;;;;;18.27;16.87;;;;;;;19.70;93.61;99417.59;5135198;27;20677;-63
2022/05/25 01:51:07;;;;;;;16.40;15.10;;;;;;;19.64;94.20;99424.00;5135343;27;20185;-63
2022/05/25 01:53:38;;;;;;;14.83;13.40;;;;;;;19.69;93.77;99424.06;5135272;27;20181;-64
2022/05/25 01:56:09;;;;;;;11.70;10.90;;;;;;;19.56;92.55;99425.28;5134749;27;20190;-63
2022/05/25 01:58:40;;;;;;;11.60;10.80;;;;;;;19.65;91.83;99425.63;5135136;27;20198;-63
2022/05/25 02:01:10;;;;;;;10.27;9.47;;;;;;;19.63;90.50;99433.13;5134384;27;20736;-64
2022/05/25 02:06:37;;;;;;;10.23;9.53;;;;;;;19.34;90.14;99431.78;5135011;27;20566;-63
2022/05/25 02:09:16;;;;;;;10.87;9.97;;;;;;;19.36;90.41;99432.34;5134615;27;20227;-63
2022/05/25 02:11:45;;;;;;;8.53;7.73;;;;;;;19.06;90.26;99438.19;5134773;27;20275;-64
2022/05/25 02:14:27;;;;;;;8.17;7.67;;;;;;;19.16;89.95;99440.19;5134602;27;20262;-65
2022/05/25 02:17:05;;;;;;;8.83;7.83;;;;;;;18.97;89.72;99441.56;5133743;27;20647;-64
2022/05/25 02:19:37;;;;;;;10.40;6.80;;;;;;;18.99;90.22;99442.16;5134468;27;20194;-64
2022/05/25 02:22:09;;;;;;;7.63;6.97;;;;;;;19.02;90.24;99442.44;5134305;27;20299;-63
2022/05/25 02:24:41;;;;;;;8.03;7.23;;;;;;;18.77;90.93;99449.38;5134568;27;20273;-65
2022/05/25 02:27:14;;;;;;;8.63;7.00;;;;;;;18.78;91.56;99451.03;5135155;27;20220;-62
2022/05/25 02:29:45;;;;;;;7.70;7.03;;;;;;;18.83;91.02;99453.78;5134626;27;20185;-62
2022/05/25 02:32:18;;;;;;;6.97;6.60;;;;;;;18.86;91.26;99454.09;5134329;27;20248;-63
2022/05/25 02:34:47;;;;;;;7.53;7.13;;;;;;;18.85;91.05;99457.03;5134625;27;20179;-64
2022/05/25 02:37:16;;;;;;;7.43;6.93;;;;;;;18.91;90.42;99461.44;5134128;27;20189;-63
2022/05/25 02:39:43;;;;;;;7.90;7.17;;;;;;;19.02;90.68;99455.09;5134396;27;20187;-62
2022/05/25 02:42:13;;;;;;;7.83;7.13;;;;;;;19.09;89.81;99463.78;5134081;27;20228;-63
2022/05/25 02:44:40;;;;;;;10.40;7.10;;;;;;;19.10;89.79;99462.72;5133681;27;20226;-63
2022/05/25 02:47:07;;;;;;;11.60;7.53;;;;;;;19.17;89.74;99472.25;5133701;27;20188;-63
2022/05/25 02:49:35;;;;;;;9.50;8.80;;;;;;;19.21;88.84;99472.56;5133382;27;20282;-63
2022/05/25 02:52:02;;;;;;;10.27;9.27;;;;;;;19.19;89.76;99469.31;5134102;27;20262;-63
2022/05/25 02:54:28;;;;;;;10.70;9.80;;;;;;;19.24;89.41;99477.47;5133612;27;20186;-63
2022/05/25 02:56:55;;;;;;;14.57;13.10;;;;;;;19.29;89.52;99480.22;5134132;27;20273;-63
2022/05/25 02:59:22;;;;;;;10.87;9.97;;;;;;;19.34;89.50;99477.56;5134000;27;20188;-62
2022/05/25 03:01:49;;;;;;;10.30;9.10;;;;;;;19.39;89.08;99477.63;5133246;27;20271;-64
2022/05/25 03:04:15;;;;;;;13.10;10.27;;;;;;;19.02;90.77;99488.22;5133466;27;20193;-63
2022/05/25 03:06:43;;;;;;;10.23;9.30;;;;;;;19.11;90.71;99488.59;5133138;27;20238;-63
2022/05/25 03:09:10;;;;;;;15.10;10.93;;;;;;;19.17;90.30;99484.88;5133663;27;20276;-63
2022/05/25 03:11:37;;;;;;;15.37;8.87;;;;;;;19.17;90.11;99487.59;5133256;27;20251;-63
2022/05/25 03:14:04;;;;;;;13.17;10.13;;;;;;;19.19;90.26;99488.16;5133784;27;20577;-63
2022/05/25 03:16:30;;;;;;;13.63;12.23;;;;;;;19.22;89.79;99487.63;5133361;27;20205;-62
2022/05/25 03:18:58;;;;;;;15.90;11.77;;;;;;;19.06;89.88;99491.22;5133215;27;20341;-63
2022/05/25 03:21:26;;;;;;;12.23;9.37;;;;;;;19.09;90.22;99490.72;5133372;27;20238;-63
2022/05/25 03:23:54;;;;;;;13.57;11.40;;;;;;;19.09;89.72;99501.50;5133412;27;20192;-62
2022/05/25 03:26:20;;;;;;;17.60;11.63;;;;;;;19.08;90.24;99494.47;5133125;27;20193;-63
2022/05/25 03:28:47;;;;;;;19.27;10.30;;;;;;;19.15;89.91;99511.28;5133340;27;20274;-62
2022/05/25 03:31:15;;;;;;;22.80;15.97;;;;;;;19.22;89.83;99517.25;5133089;27;20655;-64
2022/05/25 03:33:42;;;;;;;21.43;13.90;;;;;;;18.93;91.16;99519.34;5133139;27;20705;-63
2022/05/25 03:36:08;;;;;;;13.17;10.77;;;;;;;18.92;90.40;99523.09;5133122;27;20619;-63
2022/05/25 03:38:36;;;;;;;19.40;11.73;;;;;;;18.95;91.08;99516.41;5133191;27;20196;-63
2022/05/25 03:41:05;;;;;;;16.30;11.60;;;;;;;18.91;90.48;99517.97;5133157;27;20192;-63
2022/05/25 03:43:36;;;;;;;13.20;10.90;;;;;;;18.99;90.81;99518.31;5133207;27;20221;-63
2022/05/25 03:46:03;;;;;;;16.00;9.37;;;;;;;19.05;90.33;99532.66;5132658;27;20558;-63
2022/05/25 03:48:30;;;;;;;10.53;9.53;;;;;;;19.11;89.69;99531.69;5133187;27;20197;-63
2022/05/25 03:50:57;;;;;;;19.03;11.53;;;;;;;19.06;89.51;99531.59;5133091;27;20636;-63
2022/05/25 03:53:24;;;;;;;16.33;10.43;;;;;;;19.16;89.48;99534.44;5132311;27;20186;-64
2022/05/25 03:55:50;;;;;;;27.33;11.93;;;;;;;19.21;88.48;99539.88;5132286;27;20194;-64
2022/05/25 03:58:18;;;;;;;21.83;11.00;;;;;;;19.17;88.85;99536.88;5132603;27;20666;-63
2022/05/25 04:00:45;;;;;;;18.37;10.27;;;;;;;19.20;88.76;99547.13;5132162;27;20190;-63
2022/05/25 04:03:15;;;;;;;15.67;10.17;;;;;;;19.25;88.28;99543.72;5132263;27;20232;-63
2022/05/25 04:05:43;;;;;;;16.93;10.40;;;;;;;19.24;88.03;99550.19;5132652;27;20193;-63
2022/05/25 04:08:10;;;;;;;23.27;12.07;;;;;;;19.02;88.66;99549.31;5132282;27;20269;-63
2022/05/25 04:10:36;;;;;;;20.70;11.57;;;;;;;19.03;89.41;99550.97;5132376;27;20257;-63
2022/05/25 04:13:04;;;;;;;22.93;10.13;;;;;;;19.06;89.57;99553.97;5132780;27;20196;-62
2022/05/25 04:15:33;;;;;;;30.07;10.67;;;;;;;19.11;89.29;99547.84;5132552;27;20686;-63
2022/05/25 04:18:00;;;;;;;28.87;12.27;;;;;;;19.01;88.83;99553.06;5132390;27;20197;-62
2022/05/25 04:20:29;;;;;;;25.47;11.63;;;;;;;18.96;89.64;99556.53;5130353;27;20696;-63
2022/05/25 04:22:56;;;;;;;28.67;11.63;;;;;;;19.03;89.75;99556.34;5131876;27;20659;-64
2022/05/25 04:25:24;;;;;;;24.70;10.40;;;;;;;19.10;89.49;99548.88;5131679;27;20190;-63
2022/05/25 04:27:54;;;;;;;18.57;10.10;;;;;;;19.15;88.88;99557.06;5132258;27;20190;-64
2022/05/25 04:30:23;;;;;;;21.17;9.83;;;;;;;19.18;88.48;99553.84;5132687;27;20201;-62
2022/05/25 04:32:51;;;;;;;24.33;10.60;;;;;;;19.25;88.26;99559.91;5132512;27;20190;-63
2022/05/25 04:35:18;;;;;;;17.07;9.83;;;;;;;19.24;87.91;99563.66;5131987;27;20193;-64
2022/05/25 04:37:52;;;;;;;20.10;9.73;;;;;;;19.26;88.45;99562.34;5132282;27;20658;-64
2022/05/25 04:40:22;;;;;;;18.10;10.20;;;;;;;19.25;87.84;99566.09;5134360;27;20195;-63
2022/05/25 04:42:49;;;;;;;22.90;10.60;;;;;;;19.12;88.54;99571.81;5136303;27;20223;-63
2022/05/25 04:45:16;;;;;;;21.53;10.27;;;;;;;19.16;88.50;99566.75;5136170;27;20627;-64
2022/05/25 04:47:43;;;;;;;17.47;10.00;;;;;;;19.04;88.56;99566.06;5136045;27;20215;-63
2022/05/25 04:50:14;;;;;;;22.60;10.17;;;;;;;18.94;88.83;99568.59;5135760;27;20715;-63
2022/05/25 04:52:41;;;;;;;23.03;10.17;;;;;;;18.95;89.16;99571.03;5135653;27;20219;-63
2022/05/25 04:57:19;;;;;;;15.60;8.93;;;;;;;18.67;89.58;99573.03;5135602;27;20243;-63
2022/05/25 04:57:56;;;;;;;14.50;9.60;;;;;;;18.51;90.50;99580.06;5135341;27;20262;-63
2022/05/25 05:00:23;;;;;;;17.60;9.90;;;;;;;18.42;91.76;99586.09;5135923;27;20225;-63
2022/05/25 05:02:50;;;;;;;15.70;10.03;;;;;;;18.44;91.05;99582.09;5135432;27;20698;-63
2022/05/25 05:05:18;;;;;;;15.93;9.37;;;;;;;18.51;91.52;99590.00;5134966;27;20667;-63
2022/05/25 05:07:45;;;;;;;17.47;9.87;;;;;;;18.51;91.84;99593.53;5134017;27;20196;-63
2022/05/25 05:10:13;;;;;;;18.80;10.43;;;;;;;18.57;91.26;99597.09;5133842;27;20191;-62
2022/05/25 05:12:40;;;;;;;22.23;10.83;;;;;;;18.40;91.93;99601.66;5135262;27;20678;-62
2022/05/25 05:15:07;;;;;;;15.27;10.23;;;;;;;18.41;91.67;99601.41;5135672;27;20199;-62
2022/05/25 05:17:34;;;;;;;14.37;10.00;;;;;;;18.17;92.64;99599.09;5135987;27;20261;-64
2022/05/25 05:20:01;;;;;;;13.03;9.57;;;;;;;18.22;91.72;99601.84;5135775;27;20195;-63
2022/05/25 05:22:29;;;;;;;16.43;8.93;;;;;;;17.98;93.46;99605.72;5135571;27;20221;-61
2022/05/25 05:24:57;;;;;;;16.23;8.33;;;;;;;18.32;94.11;99607.41;5135346;27;20581;-62
2022/05/25 05:27:23;;;;;;;16.37;9.97;;;;;;;18.54;90.05;99609.16;5134578;27;20251;-65
2022/05/25 05:29:50;;;;;;;13.77;9.37;;;;;;;18.64;89.61;99606.66;5134961;27;20246;-61
2022/05/25 05:32:17;;;;;;;13.33;9.27;;;;;;;18.67;89.27;99599.97;5127841;27;20198;-62
2022/05/25 05:34:43;;;;;;;12.47;7.50;;;;;;;18.66;88.98;99603.72;5123181;27;20200;-64
2022/05/25 05:37:16;;;;;;;13.30;9.43;;;;;;;18.62;88.45;99607.94;5127487;27;20198;-61
2022/05/25 05:39:48;;;;;;;12.23;9.03;;;;;;;18.81;89.65;99610.13;5135441;27;20221;-62
2022/05/25 05:42:18;;;;;;;10.93;9.40;;;;;;;19.14;87.98;99611.94;5115272;27;20206;-61
2022/05/25 05:44:50;;;;;;;19.13;9.47;;;;;;;19.15;87.58;99597.44;5114574;28;20186;-61
2022/05/25 05:47:21;;;;;;;21.07;10.93;;;;;;;19.23;86.69;99618.53;5113761;28;20756;-62
2022/05/25 05:49:48;;;;;;;17.93;12.43;;;;;;;18.78;88.73;99617.91;5125548;27;20225;-63
2022/05/25 05:52:15;;;;;;;17.63;13.30;;;;;;;18.92;88.42;99613.78;5133253;27;20220;-64
2022/05/25 05:54:44;;;;;;;19.23;14.07;;;;;;;18.78;89.53;99602.53;5134254;27;20252;-65
2022/05/25 05:57:12;;;;;;;17.93;12.90;;;;;;;18.75;89.11;99592.28;5132903;27;20200;-67
2022/05/25 05:59:39;;;;;;;21.30;13.87;;;;;;;18.68;90.58;99601.56;5134170;27;20239;-65
2022/05/25 06:02:07;;;;;;;19.93;14.03;;;;;;;18.86;90.15;99598.63;5134789;27;20195;-68
2022/05/25 06:04:34;;;;;;;20.93;13.20;;;;;;;18.91;90.09;99604.09;5134300;27;20200;-67
2022/05/25 06:07:03;;;;;;;17.03;12.87;;;;;;;19.09;88.95;99603.81;5149111;27;20198;-70
2022/05/25 06:09:30;;;;;;;14.67;10.40;;;;;;;19.33;89.39;99586.41;5153000;27;20190;-67
2022/05/25 06:11:58;;;;;;;29.47;14.50;;;;;;;19.66;85.97;99621.28;5131421;27;20197;-67
2022/05/25 06:14:25;;;;;;;25.63;14.00;;;;;;;19.66;86.84;99618.59;5142066;27;20253;-72
2022/05/25 06:19:37;;;;;;;20.43;12.07;;;;;;;19.97;85.91;99623.28;5151734;27;20189;-62
2022/05/25 06:22:07;;;;;;;18.80;11.73;;;;;;;20.08;86.06;99620.44;5153495;27;20192;-62
2022/05/25 06:24:37;;;;;;;23.57;11.27;;;;;;;20.38;83.90;99625.34;5154044;27;20225;-62
2022/05/25 06:27:11;;;;;;;17.63;11.17;;;;;;;20.57;83.70;99629.28;5151432;27;20185;-62
2022/05/25 06:29:40;;;;;;;20.97;12.67;;;;;;;20.59;82.48;99637.97;5150202;27;20272;-63
2022/05/25 06:32:09;;;;;;;20.03;12.27;;;;;;;20.28;84.19;99633.34;5152809;27;20192;-63
2022/05/25 06:34:37;;;;;;;29.23;12.50;;;;;;;20.41;83.27;99624.81;5151323;27;20193;-62
2022/05/25 06:37:05;;;;;;;20.87;12.00;;;;;;;20.44;83.99;99632.41;5153529;27;20321;-62
2022/05/25 06:39:37;;;;;;;20.53;12.23;;;;;;;20.21;84.22;99635.41;5153424;27;20284;-63
2022/05/25 06:42:07;;;;;;;25.00;11.73;;;;;;;20.17;85.10;99642.38;5112102;28;20269;-63
2022/05/25 06:44:34;;;;;;;24.73;13.10;;;;;;;20.03;86.36;99639.28;5111847;28;20222;-62
2022/05/25 06:47:01;;;;;;;22.33;13.43;;;;;;;20.22;85.01;99642.47;5111979;28;20195;-62
2022/05/25 06:49:28;;;;;;;18.73;13.40;;;;;;;20.09;85.47;99654.44;5110649;28;20935;-63
2022/05/25 06:51:55;;;;;;;17.53;13.33;;;;;;;19.70;87.69;99638.59;5111976;28;20712;-69
2022/05/25 06:54:21;;;;;;;17.67;12.97;;;;;;;19.96;87.13;99644.03;5111683;28;20575;-70
2022/05/25 06:56:49;;;;;;;24.07;13.40;;;;;;;20.10;86.46;99645.28;5112870;28;20633;-69
2022/05/25 06:59:17;;;;;;;20.93;13.70;;;;;;;20.29;85.83;99643.06;5112579;28;20684;-70
2022/05/25 07:01:46;;;;;;;21.70;12.83;;;;;;;20.44;85.15;99654.00;5112650;28;20199;-70
2022/05/25 07:04:12;;;;;;;25.20;13.37;;;;;;;20.56;84.26;99649.25;5112968;28;20309;-68
2022/05/25 07:06:40;;;;;;;27.23;12.37;;;;;;;20.67;84.13;99640.97;5113323;27;20187;-68
2022/05/25 07:09:08;;;;;;;16.77;12.87;;;;;;;20.75;82.96;99641.59;5113199;28;20195;-69
2022/05/25 07:11:35;;;;;;;22.13;13.27;;;;;;;20.79;82.83;99646.22;5113293;28;20191;-68
2022/05/25 07:14:02;;;;;;;19.00;12.30;;;;;;;20.90;82.74;99650.59;5113137;28;20255;-67
2022/05/25 07:16:31;;;;;;;19.43;13.80;;;;;;;20.94;82.79;99651.75;5113119;28;20247;-67
2022/05/25 07:18:59;;;;;;;21.47;14.23;;;;;;;21.06;82.40;99649.69;5113039;28;20203;-67
2022/05/25 07:21:28;;;;;;;22.53;15.80;;;;;;;20.92;82.74;99659.31;5112747;28;20680;-68
2022/05/25 07:23:56;;;;;;;23.67;14.17;;;;;;;21.03;82.60;99654.78;5112143;28;20699;-69
2022/05/25 07:26:25;;;;;;;32.33;15.77;;;;;;;21.05;82.08;99658.88;5115867;27;20201;-69
2022/05/25 07:28:52;;;;;;;23.73;14.93;;;;;;;20.99;82.76;99667.19;5152506;27;20220;-68
2022/05/25 07:31:23;;;;;;;26.60;15.70;;;;;;;21.08;82.38;99654.81;5152351;27;20185;-69
2022/05/25 07:34:00;;;;;;;29.07;15.87;;;;;;;21.28;81.39;99661.19;5151990;27;20196;-69
2022/05/25 07:36:28;;;;;;;21.23;15.10;;;;;;;21.38;81.39;99663.94;5154052;27;20185;-69
2022/05/25 07:38:58;;;;;;;26.43;15.17;;;;;;;21.57;80.82;99670.53;5154176;27;20249;-69
2022/05/25 07:41:25;;;;;;;23.47;15.90;;;;;;;21.43;80.88;99661.25;5138384;27;20238;-69
2022/05/25 07:43:57;;;;;;;20.87;15.43;;;;;;;21.50;80.32;99671.84;5133025;27;20217;-69
2022/05/25 07:46:26;;;;;;;26.17;16.13;;;;;;;21.33;81.92;99666.63;5133981;27;20190;-69
2022/05/25 07:48:54;;;;;;;28.47;18.20;;;;;;;21.51;80.70;99671.56;5132495;27;20250;-69
2022/05/25 07:51:22;;;;;;;28.00;17.40;;;;;;;21.66;80.35;99670.84;5133247;27;20186;-69
2022/05/25 07:53:59;;;;;;;25.10;16.83;;;;;;;21.83;79.76;99677.72;5133395;27;20618;-69
2022/05/25 07:56:29;;;;;;;22.10;16.90;;;;;;;21.99;79.14;99674.00;5132812;27;20186;-69
2022/05/25 07:58:56;;;;;;;30.00;15.37;;;;;;;22.12;78.46;99668.06;5132828;27;20219;-70
2022/05/25 08:06:54;;;;;;;25.97;15.40;;;;;;;22.57;76.41;99679.03;5131808;27;20191;-70
2022/05/25 08:09:20;;;;;;;22.80;15.40;;;;;;;22.20;76.61;99675.69;5132366;27;20651;-69
2022/05/25 08:11:47;;;;;;;25.77;15.07;;;;;;;22.32;77.21;99675.44;5132769;27;20195;-70
2022/05/25 08:14:14;;;;;;;26.63;13.37;;;;;;;22.61;76.37;99672.00;5132726;27;20195;-70
2022/05/25 08:16:41;;;;;;;21.57;13.43;;;;;;;22.91;75.26;99674.69;5132488;27;20204;-69
2022/05/25 08:19:09;;;;;;;16.87;12.87;;;;;;;22.68;74.81;99683.38;5132851;27;20190;-69
2022/05/25 08:21:36;;;;;;;17.60;13.57;;;;;;;22.66;75.47;99685.53;5132980;27;20190;-70
2022/05/25 08:24:03;;;;;;;19.10;13.63;;;;;;;22.81;74.82;99699.09;5132851;27;20216;-70
2022/05/25 08:26:29;;;;;;;24.23;13.33;;;;;;;22.96;74.22;99690.16;5132844;27;20194;-71
2022/05/25 08:28:56;;;;;;;25.93;14.53;;;;;;;23.13;73.66;99696.09;5132469;27;20235;-71
2022/05/25 08:31:23;;;;;;;20.53;12.57;;;;;;;23.28;73.44;99707.75;5132372;27;20191;-70
2022/05/25 08:33:49;;;;;;;17.47;13.17;;;;;;;23.37;72.32;99716.19;5132593;27;20635;-69
2022/05/25 08:36:17;;;;;;;16.80;13.90;;;;;;;23.47;72.35;99716.97;5132027;27;20251;-70
2022/05/25 08:38:44;;;;;;;19.43;12.83;;;;;;;23.51;71.50;99715.34;5148887;27;20206;-70
2022/05/25 08:41:11;;;;;;;20.90;13.47;;;;;;;23.04;73.46;99701.28;5139733;27;20672;-71
2022/05/25 08:43:43;;;;;;;16.50;13.07;;;;;;;23.31;72.43;99701.81;5132158;27;20704;-71
2022/05/25 08:46:14;;;;;;;20.73;12.67;;;;;;;23.48;72.01;99710.44;5131695;27;20638;-71
2022/05/25 08:48:42;;;;;;;21.20;12.67;;;;;;;23.65;71.44;99710.94;5132740;27;20187;-72
2022/05/25 08:51:13;;;;;;;17.33;12.50;;;;;;;23.69;70.90;99709.31;5131360;27;20233;-71
2022/05/25 08:53:42;;;;;;;24.97;12.77;;;;;;;23.88;70.44;99712.22;5130692;27;20242;-72
2022/05/25 08:56:18;;;;;;;16.70;12.70;;;;;;;23.92;69.82;99719.59;5131433;27;20195;-72
2022/05/25 08:58:48;;;;;;;19.60;11.60;;;;;;;24.03;69.50;99704.91;5128999;27;20196;-76
2022/05/25 09:01:23;;;;;;;21.90;12.03;;;;;;;24.19;68.94;99717.31;5129647;27;20193;-76
2022/05/25 09:03:57;;;;;;;15.63;11.60;;;;;;;24.38;68.31;99710.13;5126782;27;20204;-73
2022/05/25 09:06:32;;;;;;;29.23;14.07;;;;;;;24.61;67.75;99711.38;5126744;27;20211;-73
2022/05/25 09:10:05;;;;;;;17.93;12.33;;;;;;;24.85;67.04;99710.41;5126546;27;20185;-70
2022/05/25 09:12:40;;;;;;;18.13;12.27;;;;;;;24.96;65.67;99717.34;5127593;27;20265;-74
2022/05/25 09:15:14;;;;;;;12.50;11.23;;;;;;;25.22;64.04;99717.16;5129044;27;20197;-72
2022/05/25 09:17:46;;;;;;;15.33;11.97;;;;;;;25.34;64.09;99710.28;5131090;27;20190;-72
2022/05/25 09:20:26;;;;;;;12.17;10.93;;;;;;;25.18;64.31;99705.25;5128963;27;20190;-74
2022/05/25 09:22:54;;;;;;;21.53;12.77;;;;;;;25.22;63.80;99712.53;5130971;27;20190;-74
2022/05/25 09:25:21;;;;;;;12.83;11.43;;;;;;;25.22;63.88;99711.69;5129742;27;20225;-73
2022/05/25 09:27:58;;;;;;;15.50;11.00;;;;;;;25.33;63.39;99707.84;5134859;27;20568;-75
2022/05/25 09:30:26;;;;;;;15.80;12.10;;;;;;;25.25;64.34;99711.13;5135701;27;20239;-73
2022/05/25 09:32:57;;;;;;;16.37;12.80;;;;;;;24.93;65.23;99709.78;5135335;27;20220;-73
2022/05/25 09:35:29;;;;;;;13.07;11.77;;;;;;;25.08;64.58;99705.31;5135485;27;20190;-73
2022/05/25 09:38:01;;;;;;;14.70;13.10;;;;;;;25.25;64.36;99705.69;5136405;27;20186;-72
2022/05/25 09:40:33;;;;;;;15.00;13.30;;;;;;;25.41;62.46;99712.66;5133347;27;20687;-76
2022/05/25 09:43:04;;;;;;;16.47;12.80;;;;;;;25.44;62.90;99698.47;5135003;27;20193;-73
2022/05/25 09:45:40;;;;;;;17.27;15.40;;;;;;;25.71;62.50;99704.16;5135374;27;20631;-76
2022/05/25 09:48:14;;;;;;;22.43;14.60;;;;;;;25.90;61.86;99705.03;5135323;27;20277;-77
2022/05/25 09:50:44;;;;;;;18.20;14.10;;;;;;;25.85;62.10;99707.81;5128571;27;20315;-73
2022/05/25 09:53:15;;;;;;;19.13;14.57;;;;;;;25.80;61.12;99697.00;5134986;27;20186;-73
2022/05/25 09:55:46;;;;;;;16.13;14.43;;;;;;;25.92;60.67;99711.03;5135474;27;20231;-72
2022/05/25 09:58:24;;;;;;;18.63;14.13;;;;;;;25.91;61.27;99704.75;5134979;27;20572;-74
2022/05/25 10:00:56;;;;;;;20.73;15.70;;;;;;;26.00;60.57;99713.13;5135587;27;20182;-72
2022/05/25 10:03:36;;;;;;;18.80;16.13;;;;;;;26.01;60.38;99703.84;5135529;27;20186;-73
2022/05/25 10:06:18;;;;;;;23.17;15.17;;;;;;;26.03;60.29;99696.19;5134778;27;20178;-72
2022/05/25 10:08:46;;;;;;;27.93;17.17;;;;;;;26.13;60.39;99696.88;5143032;27;20288;-76
2022/05/25 10:11:29;;;;;;;23.87;16.53;;;;;;;26.22;59.62;99688.88;5153969;27;20186;-72
2022/05/25 10:14:14;;;;;;;18.67;13.60;;;;;;;26.41;60.53;99692.44;5153078;27;20262;-68
2022/05/25 10:16:41;;;;;;;17.70;15.20;;;;;;;26.68;58.16;99692.56;5133889;27;20600;-68
2022/05/25 10:19:14;;;;;;;18.17;15.80;;;;;;;26.94;58.11;99696.50;5129415;27;20193;-70
2022/05/25 10:21:48;;;;;;;19.83;16.50;;;;;;;27.15;56.86;99704.06;5130842;27;20266;-70
2022/05/25 10:24:17;;;;;;;19.80;16.60;;;;;;;27.22;56.65;99703.72;5133329;27;20241;-71
2022/05/25 10:26:49;;;;;;;17.90;15.73;;;;;;;27.21;56.74;99713.00;5134846;27;20247;-72
2022/05/25 10:37:58;;;;;;;20.50;17.30;;;;;;;27.53;55.38;99699.31;5130341;27;20643;-69
2022/05/25 10:40:25;;;;;;;21.23;18.57;;;;;;;27.66;54.95;99693.06;5129893;27;20243;-70
2022/05/25 10:42:58;;;;;;;22.17;17.33;;;;;;;27.72;54.03;99689.94;5129387;27;20196;-69
2022/05/25 10:45:33;;;;;;;25.33;18.10;;;;;;;27.86;54.23;99681.78;5131721;27;20241;-69
2022/05/25 10:48:11;;;;;;;19.40;17.37;;;;;;;28.08;53.41;99684.59;5132624;27;20184;-70
2022/05/25 10:50:46;;;;;;;22.60;17.67;;;;;;;28.07;52.83;99688.44;5133354;27;20232;-71
2022/05/25 10:53:24;;;;;;;20.63;17.67;;;;;;;27.69;54.29;99687.81;5132110;27;20185;-71
2022/05/25 10:56:23;;;;;;;23.63;17.97;;;;;;;27.63;55.15;99680.00;5130880;27;20185;-67
2022/05/25 10:59:03;;;;;;;21.87;17.90;;;;;;;27.73;53.33;99686.09;5129333;27;20659;-67
2022/05/25 11:02:08;;;;;;;24.20;19.63;;;;;;;27.82;54.86;99686.22;5133447;27;20186;-66
2022/05/25 11:04:58;;;;;;;24.23;19.83;;;;;;;27.82;54.24;99669.84;5130917;27;20213;-65
2022/05/25 11:07:33;;;;;;;24.37;20.30;;;;;;;27.91;54.47;99681.66;5126905;27;20631;-66
2022/05/25 11:10:17;;;;;;;22.93;19.33;;;;;;;27.24;55.95;99666.03;5147803;27;20200;-66
2022/05/25 11:12:56;;;;;;;28.20;21.27;;;;;;;26.46;58.90;99674.06;5154210;27;20219;-65
2022/05/25 11:15:29;;;;;;;24.27;19.63;;;;;;;26.22;58.90;99673.34;5154835;27;20185;-65
2022/05/25 11:18:22;;;;;;;29.20;21.37;;;;;;;26.15;59.93;99661.16;5153920;27;20624;-65
2022/05/25 11:21:01;;;;;;;32.27;22.33;;;;;;;26.27;60.43;99664.28;5154690;27;20189;-65
2022/05/25 11:23:45;;;;;;;28.10;21.20;;;;;;;25.94;60.44;99665.28;5154195;27;20185;-66
2022/05/25 11:26:42;;;;;;;30.27;23.27;;;;;;;25.89;61.05;99662.59;5153888;27;20726;-65
2022/05/25 11:29:27;;;;;;;25.77;20.70;;;;;;;25.85;60.11;99650.66;5154505;27;20193;-65
2022/05/25 11:32:00;;;;;;;23.47;19.67;;;;;;;25.47;60.96;99635.34;5153674;27;20181;-66
2022/05/25 11:34:45;;;;;;;25.10;21.40;;;;;;;25.05;63.73;99636.00;5153710;27;20196;-65
2022/05/25 11:37:27;;;;;;;25.10;20.97;;;;;;;25.12;63.08;99636.50;5153864;27;20220;-66
2022/05/25 11:40:08;;;;;;;28.47;22.03;;;;;;;24.71;64.70;99625.16;5153008;27;20311;-66
2022/05/25 11:42:55;;;;;;;27.27;21.77;;;;;;;25.03;63.95;99616.44;5133575;27;20185;-65
2022/05/25 11:45:33;;;;;;;25.70;21.60;;;;;;;25.08;64.18;99612.88;5130430;27;20213;-68
2022/05/25 11:48:16;;;;;;;26.77;23.00;;;;;;;25.35;63.67;99619.41;5131984;27;20650;-64
2022/05/25 11:50:48;;;;;;;27.30;21.73;;;;;;;25.44;62.94;99625.81;5130176;27;20221;-67
2022/05/25 11:53:33;;;;;;;28.77;23.83;;;;;;;25.73;61.49;99636.66;5132081;27;20193;-66
2022/05/25 11:56:10;;;;;;;32.03;22.10;;;;;;;25.77;61.42;99637.69;5130550;27;20253;-67
2022/05/25 11:58:57;;;;;;;24.13;21.53;;;;;;;26.08;60.62;99649.81;5131461;27;20185;-66